Time;durP1;ratioP1;P1;durP2;ratioP2;P2;SDS_P1;SDS_P2;PMS_P1;PMS_P2;Temp;Humidity;BMP_temperature;BMP_pressure;BME280_temperature;BME280_humidity;BME280_pressure;Samples;Min_cycle;Max_cycle;Signal;HPM_P1;HPM_P2
2021/10/30 00:01:16;;;;;;;;;;;;;;;19.33;56.93;101949.19;5068710;28;1620;-40
2021/10/30 00:03:43;;;;;;;;;;;;;;;19.39;56.66;101962.16;5057041;28;1951;-40
2021/10/30 00:06:15;;;;;;;;;;;;;;;19.33;57.80;101953.72;5063499;28;1701;-40
2021/10/30 00:08:43;;;;;;;;;;;;;;;19.36;56.68;101957.03;5054000;28;1073;-40
2021/10/30 00:11:23;;;;;;;;;;;;;;;19.35;57.44;101949.94;5063069;28;1885;-40
2021/10/30 00:13:52;;;;;;;;;;;;;;;19.34;56.80;101950.03;5058428;28;2030;-40
2021/10/30 00:16:19;;;;;;;;;;;;;;;19.31;57.20;101944.91;5058796;28;1898;-40
2021/10/30 00:18:46;;;;;;;;;;;;;;;19.33;57.22;101956.38;5058596;28;1775;-40
2021/10/30 00:21:16;;;;;;;;;;;;;;;19.35;57.30;101952.63;5066782;28;1612;-40
2021/10/30 00:23:44;;;;;;;;;;;;;;;19.35;56.62;101947.25;5062621;28;1094;-40
2021/10/30 00:26:11;;;;;;;;;;;;;;;19.30;57.37;101944.06;5061330;28;1528;-40
2021/10/30 00:28:41;;;;;;;;;;;;;;;19.32;57.24;101946.63;5071149;28;1902;-40
2021/10/30 00:31:09;;;;;;;;;;;;;;;19.32;57.40;101957.34;5069088;28;1778;-40
2021/10/30 00:33:36;;;;;;;;;;;;;;;19.31;57.52;101939.53;5065050;28;1503;-40
2021/10/30 00:36:23;;;;;;;;;;;;;;;19.25;57.42;101924.75;5071071;28;1770;-40
2021/10/30 00:38:52;;;;;;;;;;;;;;;19.26;57.40;101932.69;5052888;28;1286;-40
2021/10/30 00:41:19;;;;;;;;;;;;;;;19.31;56.46;101932.34;5067417;28;1745;-40
2021/10/30 00:43:50;;;;;;;;;;;;;;;19.31;56.82;101924.31;5068305;28;1954;-40
2021/10/30 00:46:17;;;;;;;;;;;;;;;19.26;56.84;101915.75;5060579;28;1770;-40
2021/10/30 00:48:45;;;;;;;;;;;;;;;19.27;57.26;101934.38;5068754;28;1765;-40
2021/10/30 00:51:15;;;;;;;;;;;;;;;19.27;56.56;101944.25;5066524;28;1894;-40
2021/10/30 00:53:43;;;;;;;;;;;;;;;19.26;56.45;101923.78;5058123;28;1674;-40
2021/10/30 00:56:16;;;;;;;;;;;;;;;19.23;56.66;101926.69;5061779;28;1791;-40
2021/10/30 00:58:49;;;;;;;;;;;;;;;19.24;57.25;101933.78;5061209;28;1909;-40
2021/10/30 01:01:15;;;;;;;;;;;;;;;19.26;56.77;101932.69;5066964;28;1958;-40
2021/10/30 01:03:45;;;;;;;;;;;;;;;19.25;57.00;101922.91;5070960;28;1443;-40
2021/10/30 01:06:20;;;;;;;;;;;;;;;19.22;56.95;101931.19;5066944;28;1414;-40
2021/10/30 01:08:47;;;;;;;;;;;;;;;19.21;56.63;101928.59;5065488;28;1081;-40
2021/10/30 01:11:20;;;;;;;;;;;;;;;19.24;56.75;101929.25;5061218;28;1801;-40
2021/10/30 01:13:46;;;;;;;;;;;;;;;19.24;56.41;101939.13;5055277;28;1887;-40
2021/10/30 01:16:15;;;;;;;;;;;;;;;19.22;56.67;101924.97;5061097;28;1554;-40
2021/10/30 01:18:43;;;;;;;;;;;;;;;19.17;57.23;101922.59;5070395;28;1906;-40
2021/10/30 01:21:24;;;;;;;;;;;;;;;19.20;56.53;101937.59;5067509;28;1804;-40
2021/10/30 01:23:56;;;;;;;;;;;;;;;19.22;56.37;101924.97;5061712;28;1138;-40
2021/10/30 01:26:23;;;;;;;;;;;;;;;19.21;56.99;101928.59;5055154;28;1933;-40
2021/10/30 01:29:03;;;;;;;;;;;;;;;19.22;56.04;101924.97;5061065;28;1694;-40
2021/10/30 01:31:31;;;;;;;;;;;;;;;19.20;57.17;101937.59;5060964;28;1639;-40
2021/10/30 01:34:03;;;;;;;;;;;;;;;19.21;57.07;101939.34;5063443;28;1445;-40
2021/10/30 01:36:34;;;;;;;;;;;;;;;19.21;56.55;101942.03;5068552;28;1755;-40
2021/10/30 01:39:02;;;;;;;;;;;;;;;19.21;56.46;101936.66;5058397;28;1909;-40
2021/10/30 01:41:29;;;;;;;;;;;;;;;19.13;56.44;101931.84;5060560;28;1858;-40
2021/10/30 01:43:56;;;;;;;;;;;;;;;19.17;56.93;101936.00;5065244;28;1706;-40
2021/10/30 01:46:26;;;;;;;;;;;;;;;19.19;56.25;101944.81;5060910;28;1984;-40
2021/10/30 01:48:54;;;;;;;;;;;;;;;19.18;56.44;101939.53;5062864;28;1712;-40
2021/10/30 01:51:21;;;;;;;;;;;;;;;19.16;56.82;101937.00;5063748;28;1505;-40
2021/10/30 01:53:55;;;;;;;;;;;;;;;19.16;57.20;101937.00;5074030;28;1727;-40
2021/10/30 01:56:24;;;;;;;;;;;;;;;19.12;56.78;101934.63;5067643;28;1410;-40
2021/10/30 01:58:54;;;;;;;;;;;;;;;19.15;56.42;101939.78;5067068;28;1973;-40
2021/10/30 02:06:49;;;;;;;;;;;;;;;19.95;55.17;101928.69;5035270;28;2392;-40
2021/10/30 02:09:29;;;;;;;;;;;;;;;20.36;54.96;101933.66;5034537;28;1094;-41
2021/10/30 02:11:55;;;;;;;;;;;;;;;20.66;54.11;101930.47;5034402;28;1752;-40
2021/10/30 02:14:22;;;;;;;;;;;;;;;20.83;53.77;101941.75;5033854;28;1702;-40
2021/10/30 02:16:49;;;;;;;;;;;;;;;20.98;53.72;101958.53;5033991;28;1906;-41
2021/10/30 02:19:17;;;;;;;;;;;;;;;20.77;53.49;101952.97;5033937;28;1965;-40
2021/10/30 02:21:45;;;;;;;;;;;;;;;20.68;54.06;101951.00;5033164;28;1747;-40
2021/10/30 02:24:12;;;;;;;;;;;;;;;20.63;54.42;101962.97;5034859;28;1018;-40
2021/10/30 02:26:43;;;;;;;;;;;;;;;20.57;53.84;101958.03;5034186;28;1646;-40
2021/10/30 02:29:13;;;;;;;;;;;;;;;20.62;54.08;101955.88;5029892;28;1441;-40
2021/10/30 02:31:41;;;;;;;;;;;;;;;20.64;54.95;101955.75;5035127;28;1593;-40
2021/10/30 02:34:09;;;;;;;;;;;;;;;20.66;53.74;101948.44;5039603;28;1842;-40
2021/10/30 02:36:40;;;;;;;;;;;;;;;20.63;54.84;101962.97;5042143;28;1879;-40
2021/10/30 02:39:10;;;;;;;;;;;;;;;20.58;54.66;101943.63;5034638;28;1906;-40
2021/10/30 02:41:38;;;;;;;;;;;;;;;20.61;55.13;101956.88;5033992;28;1431;-40
2021/10/30 02:44:06;;;;;;;;;;;;;;;20.66;54.00;101953.81;5033873;28;1409;-40
2021/10/30 02:46:33;;;;;;;;;;;;;;;20.62;53.75;101957.72;5033921;28;1615;-40
2021/10/30 02:49:01;;;;;;;;;;;;;;;20.72;54.20;101961.41;5033384;28;1512;-40
2021/10/30 02:51:44;;;;;;;;;;;;;;;20.66;54.46;101965.41;5033401;28;1794;-40
2021/10/30 02:54:14;;;;;;;;;;;;;;;20.71;53.74;101962.41;5034198;28;1683;-40
2021/10/30 02:56:42;;;;;;;;;;;;;;;20.72;54.24;101961.41;5032779;28;2104;-41
2021/10/30 02:59:24;;;;;;;;;;;;;;;20.75;54.52;101966.56;5032970;28;1910;-40
2021/10/30 03:01:53;;;;;;;;;;;;;;;20.76;54.59;101967.41;5032630;28;1907;-40
2021/10/30 03:07:03;;;;;;;;;;;;;;;20.04;55.20;101987.94;5033740;28;2324;-40
2021/10/30 03:09:30;;;;;;;;;;;;;;;20.15;55.39;101984.44;5034045;28;1635;-40
2021/10/30 03:11:58;;;;;;;;;;;;;;;20.47;54.27;101967.75;5033447;28;1410;-40
2021/10/30 03:14:25;;;;;;;;;;;;;;;20.80;53.29;101985.00;5033316;28;1708;-40
2021/10/30 03:16:58;;;;;;;;;;;;;;;20.60;54.72;101984.69;5032678;28;1505;-40
2021/10/30 03:19:26;;;;;;;;;;;;;;;20.16;55.04;101986.16;5032963;28;1910;-40
2021/10/30 03:21:52;;;;;;;;;;;;;;;20.02;56.21;101972.91;5032005;28;1945;-40
2021/10/30 03:24:23;;;;;;;;;;;;;;;20.33;54.76;101978.69;5033449;28;1154;-41
2021/10/30 03:26:49;;;;;;;;;;;;;;;20.78;54.29;101974.38;5032829;28;1976;-40
2021/10/30 03:29:22;;;;;;;;;;;;;;;20.81;54.27;101982.22;5032746;28;1453;-40
2021/10/30 03:31:52;;;;;;;;;;;;;;;20.20;55.96;101976.06;5032754;28;1673;-40
2021/10/30 03:34:25;;;;;;;;;;;;;;;19.98;56.25;101992.91;5032888;28;1534;-40
2021/10/30 03:36:52;;;;;;;;;;;;;;;20.18;54.71;101970.81;5032925;28;1839;-40
2021/10/30 03:39:21;;;;;;;;;;;;;;;20.57;53.94;101974.16;5033328;28;1906;-40
2021/10/30 03:41:48;;;;;;;;;;;;;;;20.69;53.89;101972.41;5032459;28;1593;-40
2021/10/30 03:44:15;;;;;;;;;;;;;;;20.67;54.58;101977.00;5030863;28;2011;-40
2021/10/30 03:46:43;;;;;;;;;;;;;;;20.19;54.31;101983.28;5032342;28;1715;-40
2021/10/30 03:49:13;;;;;;;;;;;;;;;19.99;54.91;101970.44;5032587;28;1676;-40
2021/10/30 03:51:42;;;;;;;;;;;;;;;20.39;54.30;101992.53;5022156;28;2718;-40
2021/10/30 03:54:09;;;;;;;;;;;;;;;20.58;54.59;101991.97;5032562;28;1548;-40
2021/10/30 03:56:35;;;;;;;;;;;;;;;20.20;55.33;102002.94;5031671;28;1907;-40
2021/10/30 03:59:04;;;;;;;;;;;;;;;20.04;54.92;101993.31;5032284;28;1973;-40
2021/10/30 04:01:36;;;;;;;;;;;;;;;19.92;55.11;101996.03;5032143;28;1642;-40
2021/10/30 04:04:04;;;;;;;;;;;;;;;19.84;55.43;101986.69;5031218;28;1657;-40
2021/10/30 04:06:30;;;;;;;;;;;;;;;19.98;55.62;101984.84;5031969;28;1688;-40
2021/10/30 04:09:03;;;;;;;;;;;;;;;20.61;53.54;101990.91;5032057;28;1993;-41
2021/10/30 04:11:37;;;;;;;;;;;;;;;20.98;53.60;101999.72;5032023;28;1360;-40
2021/10/30 04:14:05;;;;;;;;;;;;;;;21.06;53.47;101994.59;5032025;28;1746;-40
2021/10/30 04:16:34;;;;;;;;;;;;;;;20.41;56.21;101995.06;5031986;28;1474;-40
2021/10/30 04:19:13;;;;;;;;;;;;;;;19.98;56.15;102003.66;5028110;28;1985;-40
2021/10/30 04:21:41;;;;;;;;;;;;;;;19.74;56.58;101988.34;5030399;28;1858;-40
2021/10/30 04:24:13;;;;;;;;;;;;;;;19.91;56.79;101995.16;5032028;28;1735;-40
2021/10/30 04:26:40;;;;;;;;;;;;;;;19.97;56.83;101992.03;5031363;28;1843;-40
2021/10/30 04:29:07;;;;;;;;;;;;;;;20.15;57.03;101984.44;5031958;28;1511;-40
2021/10/30 04:31:35;;;;;;;;;;;;;;;20.20;56.85;101987.66;5031686;28;1743;-40
2021/10/30 04:34:30;;;;;;;;;;;;;;;20.30;56.40;101995.03;5032197;28;1894;-40
2021/10/30 04:36:58;;;;;;;;;;;;;;;20.33;56.63;101992.13;5031527;28;2196;-40
2021/10/30 04:39:28;;;;;;;;;;;;;;;20.23;56.10;102003.56;5032020;28;1902;-40
2021/10/30 04:41:56;;;;;;;;;;;;;;;20.31;56.09;101999.44;5030551;28;2252;-40
2021/10/30 04:44:26;;;;;;;;;;;;;;;20.24;56.37;101997.19;5031377;28;2044;-40
2021/10/30 04:47:01;;;;;;;;;;;;;;;20.28;56.93;102005.91;5031674;28;1672;-40
2021/10/30 04:49:30;;;;;;;;;;;;;;;20.23;58.72;101998.19;5027623;28;1407;-41
2021/10/30 04:52:01;;;;;;;;;;;;;;;20.08;57.96;102007.38;5031147;28;1457;-40
2021/10/30 04:54:29;;;;;;;;;;;;;;;20.09;58.69;101998.31;4996761;28;11349;-40
2021/10/30 04:56:57;;;;;;;;;;;;;;;20.41;58.23;102005.81;5030808;28;1373;-39
2021/10/30 04:59:25;;;;;;;;;;;;;;;20.39;57.88;102014.03;5031897;28;2297;-39
2021/10/30 05:01:52;;;;;;;;;;;;;;;20.42;57.83;102019.16;5031439;28;1960;-40
2021/10/30 05:04:20;;;;;;;;;;;;;;;20.18;58.75;102021.84;5030695;28;1370;-40
2021/10/30 05:06:48;;;;;;;;;;;;;;;19.96;59.52;102013.63;5030781;28;1948;-40
2021/10/30 05:09:17;;;;;;;;;;;;;;;19.80;60.64;102022.78;5031847;28;1671;-40
2021/10/30 05:11:49;;;;;;;;;;;;;;;20.13;58.31;102029.34;5029825;28;1935;-40
2021/10/30 05:14:16;;;;;;;;;;;;;;;20.26;58.60;102026.66;5032082;28;1741;-40
2021/10/30 05:16:42;;;;;;;;;;;;;;;20.48;57.67;102022.38;5032070;28;1723;-39
2021/10/30 05:19:09;;;;;;;;;;;;;;;20.31;57.94;102019.09;5034803;28;1906;-40
2021/10/30 05:21:36;;;;;;;;;;;;;;;20.14;57.03;102024.88;5035592;28;1933;-40
2021/10/30 05:24:03;;;;;;;;;;;;;;;19.94;59.60;102026.31;5036031;28;1046;-40
2021/10/30 05:26:32;;;;;;;;;;;;;;;20.22;59.10;102026.00;5035198;28;1861;-40
2021/10/30 05:29:07;;;;;;;;;;;;;;;20.29;58.90;102023.72;5035012;28;1895;-40
2021/10/30 05:31:34;;;;;;;;;;;;;;;20.08;59.81;102034.22;5034258;28;1594;-40
2021/10/30 05:34:02;;;;;;;;;;;;;;;19.82;60.55;102036.97;5035036;28;1386;-40
2021/10/30 05:36:31;;;;;;;;;;;;;;;19.77;61.69;102033.72;5034865;28;1551;-40
2021/10/30 05:38:59;;;;;;;;;;;;;;;19.74;61.29;102031.28;5036523;28;1906;-40
2021/10/30 05:41:27;;;;;;;;;;;;;;;19.88;61.66;102035.66;5034463;28;1749;-40
2021/10/30 05:43:54;;;;;;;;;;;;;;;20.23;61.21;102025.06;5033118;28;1860;-40
2021/10/30 05:46:22;;;;;;;;;;;;;;;20.40;60.48;102041.75;5033195;28;1358;-40
2021/10/30 05:48:51;;;;;;;;;;;;;;;20.55;61.75;102051.34;5034340;28;1662;-40
2021/10/30 05:51:17;;;;;;;;;;;;;;;20.58;60.41;102043.06;5034793;28;1512;-39
2021/10/30 05:53:52;;;;;;;;;;;;;;;20.50;60.90;102037.41;5035112;28;922;-39
2021/10/30 05:56:18;;;;;;;;;;;;;;;20.24;63.38;102045.56;5034764;28;1480;-40
2021/10/30 05:58:46;;;;;;;;;;;;;;;19.95;63.14;102041.44;5032946;28;1981;-39
2021/10/30 06:01:14;;;;;;;;;;;;;;;19.93;64.49;102043.38;5033902;28;1540;-40
2021/10/30 06:03:44;;;;;;;;;;;;;;;20.14;64.57;102044.50;5033900;28;1830;-39
2021/10/30 06:06:11;;;;;;;;;;;;;;;20.26;62.84;102051.66;5033925;28;1626;-39
2021/10/30 06:08:41;;;;;;;;;;;;;;;20.06;62.92;102050.44;5032010;28;1333;-38
2021/10/30 06:11:08;;;;;;;;;;;;;;;19.93;64.78;102044.22;5032010;28;1496;-38
2021/10/30 06:13:37;;;;;;;;;;;;;;;20.16;64.22;102045.25;5033303;28;1385;-39
2021/10/30 06:16:03;;;;;;;;;;;;;;;20.16;64.51;102039.88;5033978;28;2193;-38
2021/10/30 06:18:31;;;;;;;;;;;;;;;19.99;63.66;102049.16;5034321;28;1910;-39
2021/10/30 06:21:07;;;;;;;;;;;;;;;19.80;65.25;102055.00;5034422;28;1318;-39
2021/10/30 06:23:46;;;;;;;;;;;;;;;20.10;63.86;102056.44;5030964;28;1599;-38
2021/10/30 06:26:15;;;;;;;;;;;;;;;20.25;63.34;102044.59;5034270;28;1699;-39
2021/10/30 06:28:41;;;;;;;;;;;;;;;20.03;62.54;102049.78;5033581;28;1474;-39
2021/10/30 06:31:09;;;;;;;;;;;;;;;19.83;63.59;102037.81;5033299;28;1779;-39
2021/10/30 06:33:37;;;;;;;;;;;;;;;20.07;62.90;102040.53;5033827;28;1816;-39
2021/10/30 06:38:51;;;;;;;;;;;;;;;20.01;63.69;102052.59;5027093;28;2479;-39
2021/10/30 06:41:18;;;;;;;;;;;;;;;19.81;65.03;102045.13;5032540;28;2178;-39
2021/10/30 06:43:51;;;;;;;;;;;;;;;19.93;65.12;102041.53;5033204;28;1547;-38
2021/10/30 06:46:20;;;;;;;;;;;;;;;20.04;65.17;102035.41;5031324;28;1360;-39
2021/10/30 06:48:50;;;;;;;;;;;;;;;19.82;64.38;102041.47;5033781;28;1442;-39
2021/10/30 06:51:22;;;;;;;;;;;;;;;19.71;65.33;102038.66;5033899;28;1327;-39
2021/10/30 06:53:51;;;;;;;;;;;;;;;20.07;64.29;102045.91;5034036;28;2632;-40
2021/10/30 06:56:18;;;;;;;;;;;;;;;19.96;64.51;102030.59;5033951;28;1639;-41
2021/10/30 06:58:46;;;;;;;;;;;;;;;19.97;65.10;102044.88;5035002;28;1906;-41
2021/10/30 07:01:26;;;;;;;;;;;;;;;19.86;64.64;102043.81;5039863;28;1447;-41
2021/10/30 07:03:55;;;;;;;;;;;;;;;20.26;65.03;102030.19;5028059;28;1540;-42
2021/10/30 07:06:31;;;;;;;;;;;;;;;20.12;65.85;102032.19;5033699;28;1679;-42
2021/10/30 07:09:06;;;;;;;;;;;;;;;19.79;65.96;102039.84;5034121;28;1435;-44
2021/10/30 07:11:32;;;;;;;;;;;;;;;19.93;66.85;102035.31;5026495;28;1893;-44
2021/10/30 07:19:23;;;;;;;;;;;;;;;19.88;66.69;102018.72;5029193;28;2477;-42
2021/10/30 07:21:53;;;;;;;;;;;;;;;19.79;66.21;102036.31;5027730;28;1716;-41
2021/10/30 07:24:21;;;;;;;;;;;;;;;20.12;64.89;102038.41;5030292;28;1855;-41
2021/10/30 07:26:49;;;;;;;;;;;;;;;20.04;65.38;102030.91;5024546;28;1557;-43
2021/10/30 07:29:15;;;;;;;;;;;;;;;19.92;65.44;102033.63;5027386;28;1562;-43
2021/10/30 07:31:43;;;;;;;;;;;;;;;20.26;65.28;102040.94;5031407;28;1555;-44
2021/10/30 07:34:09;;;;;;;;;;;;;;;20.33;63.74;102045.84;5025277;28;2121;-43
2021/10/30 07:36:39;;;;;;;;;;;;;;;20.10;65.82;102026.06;5027086;28;1549;-42
2021/10/30 07:39:08;;;;;;;;;;;;;;;20.00;63.79;102028.56;5025916;28;1907;-44
2021/10/30 07:41:37;;;;;;;;;;;;;;;20.05;65.83;102029.06;5027729;28;1836;-44
2021/10/30 07:44:21;;;;;;;;;;;;;;;20.31;64.01;102027.13;5031286;28;1666;-44
2021/10/30 07:46:53;;;;;;;;;;;;;;;20.26;65.02;102016.75;5030946;28;1621;-44
2021/10/30 07:49:21;;;;;;;;;;;;;;;20.13;65.96;102041.94;4343057;28;10001267;-44
2021/10/30 07:51:49;;;;;;;;;;;;;;;20.08;66.41;102030.69;5049663;28;2331;-44
2021/10/30 07:56:59;;;;;;;;;;;;;;;20.26;65.77;102030.19;5051331;28;2603;-43
2021/10/30 07:59:25;;;;;;;;;;;;;;;20.10;66.07;102013.47;5051019;28;1902;-44
2021/10/30 08:01:57;;;;;;;;;;;;;;;20.08;67.27;102036.06;5050708;28;1941;-43
2021/10/30 08:04:24;;;;;;;;;;;;;;;20.26;66.84;102032.00;5049527;28;1573;-43
2021/10/30 08:06:51;;;;;;;;;;;;;;;20.30;66.48;102029.97;5050561;28;1411;-44
2021/10/30 08:09:22;;;;;;;;;;;;;;;20.09;66.94;102033.25;5050888;28;2078;-44
2021/10/30 08:11:50;;;;;;;;;;;;;;;19.91;68.05;102015.78;5050385;28;1939;-44
2021/10/30 08:14:18;;;;;;;;;;;;;;;20.49;67.57;102032.13;5050070;28;1752;-44
2021/10/30 08:16:45;;;;;;;;;;;;;;;20.44;66.41;102008.28;5050187;28;1559;-44
2021/10/30 08:19:17;;;;;;;;;;;;;;;20.11;67.37;102017.88;5050311;28;1987;-44
2021/10/30 08:21:44;;;;;;;;;;;;;;;20.02;67.69;102011.34;5049997;28;1656;-44
2021/10/30 08:24:11;;;;;;;;;;;;;;;20.28;66.55;102019.31;5049089;28;1931;-44
2021/10/30 08:26:39;;;;;;;;;;;;;;;20.20;67.20;101994.88;5050375;28;1760;-43
2021/10/30 08:29:06;;;;;;;;;;;;;;;20.01;67.75;102006.94;5024890;28;1958;-43
2021/10/30 08:31:32;;;;;;;;;;;;;;;19.91;67.97;101997.00;5032174;28;1505;-43
2021/10/30 08:34:01;;;;;;;;;;;;;;;20.20;67.48;102022.56;5029718;28;1695;-44
2021/10/30 08:36:33;;;;;;;;;;;;;;;20.25;68.25;102012.38;5028539;28;1892;-43
2021/10/30 08:39:03;;;;;;;;;;;;;;;20.14;68.61;102008.75;5031430;28;1906;-44
2021/10/30 08:41:30;;;;;;;;;;;;;;;20.13;68.11;102013.25;5025063;28;1505;-44
2021/10/30 08:44:06;;;;;;;;;;;;;;;20.10;68.40;102018.84;5023805;28;1548;-45
2021/10/30 08:46:32;;;;;;;;;;;;;;;19.85;68.26;102017.09;5024755;28;1777;-44
2021/10/30 08:49:01;;;;;;;;;;;;;;;19.80;67.69;102017.44;5030583;28;1963;-42
2021/10/30 08:54:10;;;;;;;;;;;;;;;20.17;67.13;102014.72;5035634;28;2452;-42
2021/10/30 08:56:38;;;;;;;;;;;;;;;20.17;67.79;102014.72;5033728;28;1846;-42
2021/10/30 08:59:06;;;;;;;;;;;;;;;20.21;68.30;102010.88;5025746;28;1984;-45
2021/10/30 09:01:42;;;;;;;;;;;;;;;20.23;67.94;102018.78;5030529;28;1849;-44
2021/10/30 09:04:12;;;;;;;;;;;;;;;20.15;67.92;102021.19;5027125;28;2044;-43
2021/10/30 09:06:40;;;;;;;;;;;;;;;20.11;68.86;102014.34;5039193;28;2466;-44
2021/10/30 09:12:07;;;;;;;;;;;;;;;20.04;67.31;102013.94;5032937;28;1626;-42
2021/10/30 09:14:47;;;;;;;;;;;;;;;20.17;68.79;102008.50;5028962;28;1766;-43
2021/10/30 09:17:18;;;;;;;;;;;;;;;20.31;69.13;102015.53;5030599;28;1750;-43
2021/10/30 09:19:54;;;;;;;;;;;;;;;20.39;70.15;102023.88;5034653;28;1906;-47
2021/10/30 09:22:28;;;;;;;;;;;;;;;20.42;70.53;102021.00;5030970;28;1701;-42
2021/10/30 09:24:55;;;;;;;;;;;;;;;20.40;70.11;102014.88;5032072;28;1680;-42
2021/10/30 09:30:13;;;;;;;;;;;;;;;20.39;69.93;101988.97;5021628;28;2463;-43
2021/10/30 09:32:41;;;;;;;;;;;;;;;20.19;69.08;101996.69;5030062;28;1501;-43
2021/10/30 09:35:09;;;;;;;;;;;;;;;19.93;69.56;101995.91;5030369;28;1453;-45
2021/10/30 09:37:35;;;;;;;;;;;;;;;19.95;68.89;101996.66;5030014;28;1696;-45
2021/10/30 09:40:18;;;;;;;;;;;;;;;19.87;69.35;101980.25;5028574;28;1977;-45
2021/10/30 09:42:45;;;;;;;;;;;;;;;19.77;70.21;101969.31;5029330;28;1750;-44
2021/10/30 09:45:14;;;;;;;;;;;;;;;19.80;70.32;101969.13;5029159;28;1943;-44
2021/10/30 09:47:42;;;;;;;;;;;;;;;19.79;69.94;101956.63;5028983;28;1798;-45
2021/10/30 09:50:22;;;;;;;;;;;;;;;19.65;70.71;101964.81;5029452;28;1557;-45
2021/10/30 09:52:49;;;;;;;;;;;;;;;19.60;70.38;101962.47;5034148;28;1798;-44
2021/10/30 09:55:22;;;;;;;;;;;;;;;19.44;66.63;101972.59;5034755;28;1788;-44
2021/10/30 09:57:48;;;;;;;;;;;;;;;19.36;69.26;101970.44;5029343;28;1823;-44
2021/10/30 10:00:16;;;;;;;;;;;;;;;19.34;71.83;101963.44;5034761;28;1988;-44
2021/10/30 10:02:44;;;;;;;;;;;;;;;19.29;70.95;101958.44;5028892;28;1965;-43
2021/10/30 10:05:11;;;;;;;;;;;;;;;19.24;71.43;101960.59;5030204;28;2011;-44
2021/10/30 10:07:39;;;;;;;;;;;;;;;19.24;71.00;101955.22;5032914;28;1668;-44
2021/10/30 10:10:06;;;;;;;;;;;;;;;19.19;70.69;101958.22;5035390;28;1623;-43
2021/10/30 10:12:33;;;;;;;;;;;;;;;19.19;70.73;101952.84;5028574;28;1715;-45
2021/10/30 10:15:00;;;;;;;;;;;;;;;19.17;70.77;101948.56;5034051;28;1590;-44
2021/10/30 10:17:28;;;;;;;;;;;;;;;19.12;70.72;101931.94;5030063;28;1756;-45
2021/10/30 10:19:55;;;;;;;;;;;;;;;19.15;70.98;101945.13;5030002;28;1918;-44
2021/10/30 10:22:21;;;;;;;;;;;;;;;19.13;71.27;101939.03;5034060;28;1511;-44
2021/10/30 10:24:49;;;;;;;;;;;;;;;19.10;70.52;101926.69;5033822;28;1649;-45
2021/10/30 10:27:16;;;;;;;;;;;;;;;19.10;70.99;101928.50;5033735;28;1697;-45
2021/10/30 10:29:43;;;;;;;;;;;;;;;19.07;70.57;101927.75;5031444;28;1726;-44
2021/10/30 10:32:20;;;;;;;;;;;;;;;19.14;70.49;101938.91;5029793;28;1809;-44
2021/10/30 10:34:48;;;;;;;;;;;;;;;19.08;71.05;101926.81;5027983;28;2090;-44
2021/10/30 10:37:20;;;;;;;;;;;;;;;19.05;70.51;101916.28;5028037;28;1529;-45
2021/10/30 10:39:47;;;;;;;;;;;;;;;19.05;71.31;101921.63;5027397;28;1910;-45
2021/10/30 10:42:14;;;;;;;;;;;;;;;19.07;70.20;101916.19;5027624;28;1784;-44
2021/10/30 10:45:01;;;;;;;;;;;;;;;19.04;70.76;101909.22;5028117;28;1735;-44
2021/10/30 10:47:49;;;;;;;;;;;;;;;19.03;70.57;101915.53;5029038;28;2051;-44
2021/10/30 10:50:25;;;;;;;;;;;;;;;19.04;70.06;101901.19;5030543;28;1659;-44
2021/10/30 10:53:13;;;;;;;;;;;;;;;19.11;69.74;101903.41;5033737;28;1790;-45
2021/10/30 10:56:03;;;;;;;;;;;;;;;19.22;68.92;101903.53;5022609;28;1782;-44
2021/10/30 10:58:31;;;;;;;;;;;;;;;19.04;70.57;101895.81;5028444;28;1501;-45
2021/10/30 11:01:01;;;;;;;;;;;;;;;19.01;70.99;101884.44;5027500;28;1906;-45
2021/10/30 11:03:27;;;;;;;;;;;;;;;18.97;70.07;101878.44;5028268;28;1729;-46
2021/10/30 11:06:08;;;;;;;;;;;;;;;19.03;69.50;101882.50;5031218;28;1597;-44
2021/10/30 11:08:36;;;;;;;;;;;;;;;19.16;68.54;101882.47;5033939;28;1676;-44
2021/10/30 11:11:20;;;;;;;;;;;;;;;19.15;68.21;101875.41;5031385;28;1602;-46
2021/10/30 11:14:06;;;;;;;;;;;;;;;19.13;69.17;101882.72;5030364;28;1494;-45
2021/10/30 11:16:34;;;;;;;;;;;;;;;19.20;67.84;101882.19;5024930;28;1566;-44
2021/10/30 11:19:32;;;;;;;;;;;;;;;19.14;68.21;101877.25;5028392;28;1901;-43
2021/10/30 11:22:14;;;;;;;;;;;;;;;19.11;68.42;101863.19;5028754;28;1903;-45
2021/10/30 11:24:50;;;;;;;;;;;;;;;19.12;68.67;101860.41;5031270;28;1602;-46
2021/10/30 11:27:17;;;;;;;;;;;;;;;19.12;68.69;101848.81;5028699;28;1359;-46
2021/10/30 11:29:53;;;;;;;;;;;;;;;19.11;68.05;101853.31;5032408;28;1493;-46
2021/10/30 11:32:20;;;;;;;;;;;;;;;19.06;68.98;101844.78;5029780;28;1591;-45
2021/10/30 11:34:53;;;;;;;;;;;;;;;19.11;69.08;101852.47;5028863;28;1772;-44
2021/10/30 11:37:21;;;;;;;;;;;;;;;19.08;69.19;101826.75;5027319;28;1779;-45
2021/10/30 11:39:47;;;;;;;;;;;;;;;19.07;69.35;101825.88;5027230;28;1528;-46
2021/10/30 11:42:14;;;;;;;;;;;;;;;19.15;67.90;101848.59;5028447;28;2562;-45
2021/10/30 11:44:48;;;;;;;;;;;;;;;19.11;68.26;101837.25;5026938;28;1653;-45
2021/10/30 11:47:16;;;;;;;;;;;;;;;19.14;67.94;101844.19;5030587;28;1696;-45
2021/10/30 11:49:42;;;;;;;;;;;;;;;19.11;68.09;101831.03;5031448;28;1393;-45
2021/10/30 11:52:10;;;;;;;;;;;;;;;19.06;68.49;101834.06;5031545;28;1837;-44
2021/10/30 11:54:38;;;;;;;;;;;;;;;19.04;68.65;101833.31;5020418;28;1631;-45
2021/10/30 11:57:05;;;;;;;;;;;;;;;19.03;68.22;101831.56;5023649;28;1692;-44
2021/10/30 11:59:32;;;;;;;;;;;;;;;19.00;68.99;101831.78;5026168;28;2428;-45
2021/10/30 12:02:03;;;;;;;;;;;;;;;19.02;68.33;101825.38;5028709;28;1977;-45
2021/10/30 12:04:35;;;;;;;;;;;;;;;19.01;68.07;101825.47;5024885;28;1660;-45
2021/10/30 12:10:22;;;;;;;;;;;;;;;18.96;67.74;101823.13;5033576;28;1957;-45
2021/10/30 12:12:51;;;;;;;;;;;;;;;18.95;68.51;101824.06;5028605;28;1894;-45
2021/10/30 12:15:17;;;;;;;;;;;;;;;18.96;67.63;101822.25;5024508;28;2158;-45
2021/10/30 12:17:46;;;;;;;;;;;;;;;18.96;68.00;101824.94;5027468;28;1689;-45
2021/10/30 12:20:18;;;;;;;;;;;;;;;18.96;68.63;101838.31;5027299;28;1988;-45
2021/10/30 12:22:45;;;;;;;;;;;;;;;18.95;68.28;101825.91;5029931;28;1721;-45
2021/10/30 12:25:12;;;;;;;;;;;;;;;18.95;68.63;101826.75;5029137;28;1812;-45
2021/10/30 12:27:39;;;;;;;;;;;;;;;18.97;67.81;101824.81;5026234;28;2061;-45
2021/10/30 12:30:09;;;;;;;;;;;;;;;18.94;69.00;101819.69;5028893;28;1698;-45
2021/10/30 12:32:43;;;;;;;;;;;;;;;19.08;65.85;101822.25;5025555;28;1647;-45
2021/10/30 12:35:14;;;;;;;;;;;;;;;19.05;64.72;101825.13;5031277;28;1481;-45
2021/10/30 12:37:43;;;;;;;;;;;;;;;18.93;65.59;101823.34;5026664;28;1497;-45
2021/10/30 12:40:14;;;;;;;;;;;;;;;18.90;65.82;101823.56;5028709;28;1533;-45
2021/10/30 12:42:43;;;;;;;;;;;;;;;18.90;67.46;101828.94;5028302;28;1825;-45
2021/10/30 12:45:42;;;;;;;;;;;;;;;18.86;68.08;101828.28;5023072;28;1937;-45
2021/10/30 12:48:10;;;;;;;;;;;;;;;18.88;67.59;101822.81;5028613;28;2067;-45
2021/10/30 12:50:36;;;;;;;;;;;;;;;18.88;67.81;101820.13;5029402;28;1402;-45
2021/10/30 12:53:03;;;;;;;;;;;;;;;18.84;68.40;101829.34;5031862;28;1799;-45
2021/10/30 12:55:29;;;;;;;;;;;;;;;18.84;68.10;101823.97;5031771;28;1532;-45
2021/10/30 12:57:56;;;;;;;;;;;;;;;18.85;67.40;101820.34;5025664;28;1665;-45
2021/10/30 13:00:24;;;;;;;;;;;;;;;18.83;67.41;101814.25;5024778;28;1910;-45
2021/10/30 13:02:51;;;;;;;;;;;;;;;18.80;68.35;101811.75;5027453;28;1882;-45
2021/10/30 13:05:32;;;;;;;;;;;;;;;18.80;68.26;101795.69;5028961;28;1805;-45
2021/10/30 13:10:45;;;;;;;;;;;;;;;18.86;67.14;101798.81;5030612;28;1728;-45
2021/10/30 13:13:12;;;;;;;;;;;;;;;18.84;66.96;101799.84;5030570;28;1437;-45
2021/10/30 13:15:40;;;;;;;;;;;;;;;18.87;67.55;101807.69;5032010;28;1591;-45
2021/10/30 13:18:06;;;;;;;;;;;;;;;18.84;67.99;101803.41;5025842;28;1530;-45
2021/10/30 13:20:33;;;;;;;;;;;;;;;18.83;67.86;101808.88;5023811;28;1914;-45
2021/10/30 13:22:59;;;;;;;;;;;;;;;18.81;67.44;101798.25;5027288;28;1956;-45
2021/10/30 13:25:26;;;;;;;;;;;;;;;18.83;67.00;101811.56;5030512;28;1788;-46
2021/10/30 13:27:53;;;;;;;;;;;;;;;18.80;67.72;101795.69;5029019;28;2148;-45
2021/10/30 13:30:23;;;;;;;;;;;;;;;18.82;67.30;101791.06;5026826;28;1684;-45
2021/10/30 13:32:57;;;;;;;;;;;;;;;18.80;67.50;101801.03;5026026;28;1826;-45